createdAt,value
2022-07-27T00:03:32.898Z,59.23
2022-07-27T00:08:37.089Z,59.72
2022-07-27T00:13:40.749Z,60.96
2022-07-27T00:18:43.583Z,62.56
2022-07-27T00:23:47.868Z,63.28
2022-07-27T00:28:51.294Z,63.32
2022-07-27T00:33:54.242Z,63.70
2022-07-27T00:38:58.453Z,63.16
2022-07-27T00:44:01.830Z,63.04
2022-07-27T00:49:04.901Z,63.29
2022-07-27T00:54:09.180Z,63.74
2022-07-27T00:59:15.082Z,63.98
2022-07-27T01:04:17.949Z,63.29
2022-07-27T01:09:39.977Z,63.04
2022-07-27T01:14:42.921Z,63.67
2022-07-27T01:19:47.696Z,63.76
2022-07-27T01:24:52.044Z,63.32
2022-07-27T01:29:54.890Z,63.43
2022-07-27T01:34:57.679Z,63.77
2022-07-27T01:40:01.824Z,64.90
2022-07-27T01:45:05.006Z,64.59
2022-07-27T01:50:08.800Z,65.16
2022-07-27T01:55:13.359Z,64.73
2022-07-27T02:00:16.781Z,64.39
2022-07-27T02:05:19.689Z,64.45
2022-07-27T02:10:24.326Z,64.43
2022-07-27T02:15:28.818Z,64.32
2022-07-27T02:20:45.919Z,64.48
2022-07-27T02:25:50.167Z,64.67
2022-07-27T02:30:52.998Z,64.39
2022-07-27T02:35:56.053Z,64.98
2022-07-27T02:41:00.178Z,65.89
2022-07-27T02:46:03.036Z,65.86
2022-07-27T02:51:06.140Z,65.77
2022-07-27T02:56:10.848Z,65.61
2022-07-27T03:01:13.657Z,65.55
2022-07-27T03:06:16.572Z,65.81
2022-07-27T03:11:20.732Z,66.22
2022-07-27T03:16:23.645Z,66.62
2022-07-27T03:21:27.019Z,66.10
2022-07-27T03:26:33.235Z,65.50
2022-07-27T03:31:36.046Z,66.11
2022-07-27T03:36:38.833Z,66.42
2022-07-27T03:41:44.091Z,66.44
2022-07-27T03:46:47.150Z,66.60
2022-07-27T03:51:49.915Z,67.43
2022-07-27T03:56:54.319Z,67.73
2022-07-27T04:01:57.231Z,66.46
2022-07-27T04:07:01.843Z,65.71
2022-07-27T04:12:06.701Z,65.44
2022-07-27T04:17:09.587Z,64.50
2022-07-27T04:22:12.522Z,66.29
2022-07-27T04:27:16.612Z,64.67
2022-07-27T04:32:19.684Z,63.90
2022-07-27T04:37:22.445Z,64.28
2022-07-27T04:42:26.713Z,63.16
2022-07-27T04:47:29.744Z,62.95
2022-07-27T04:52:32.539Z,63.12
2022-07-27T04:57:36.757Z,64.27
2022-07-27T05:02:41.618Z,63.92
2022-07-27T05:07:44.412Z,63.43
2022-07-27T05:12:48.797Z,63.31
2022-07-27T05:17:52.309Z,63.84
2022-07-27T05:22:55.072Z,63.48
2022-07-27T05:27:59.209Z,63.07
2022-07-27T05:33:02.022Z,62.72
2022-07-27T05:38:04.835Z,63.48
2022-07-27T05:43:09.247Z,63.91
2022-07-27T05:48:12.119Z,62.30
2022-07-27T05:53:14.922Z,61.97
2022-07-27T05:58:19.152Z,61.08
2022-07-27T06:03:27.575Z,61.63
2022-07-27T06:08:30.404Z,61.31
2022-07-27T06:13:36.580Z,60.16
2022-07-27T06:18:39.728Z,62.18
2022-07-27T06:23:42.555Z,60.42
2022-07-27T06:28:46.831Z,59.96
2022-07-27T06:33:52.244Z,59.02
2022-07-27T06:38:55.262Z,58.39
2022-07-27T06:43:59.460Z,58.41
2022-07-27T06:49:02.345Z,59.19
2022-07-27T06:54:05.377Z,59.97
2022-07-27T06:59:09.758Z,57.26
2022-07-27T07:04:13.065Z,55.07
2022-07-27T07:09:16.176Z,54.65
2022-07-27T07:14:20.550Z,53.44
2022-07-27T07:19:23.494Z,52.71
2022-07-27T07:24:26.304Z,53.31
2022-07-27T07:29:30.496Z,50.22
2022-07-27T07:34:33.294Z,49.09
2022-07-27T07:39:36.978Z,48.87
2022-07-27T07:44:41.637Z,46.30
2022-07-27T07:49:44.550Z,46.17
2022-07-27T07:54:47.406Z,46.27
2022-07-27T07:59:51.727Z,45.41
2022-07-27T08:04:54.606Z,44.53
2022-07-27T08:09:57.430Z,43.67
2022-07-27T08:15:01.719Z,42.54
2022-07-27T08:20:05.202Z,40.27
2022-07-27T08:25:10.327Z,42.98
2022-07-27T08:30:15.581Z,47.61
2022-07-27T08:40:41.050Z,49.76
2022-07-27T08:45:52.731Z,49.05
2022-07-27T08:50:56.044Z,47.37
2022-07-27T08:55:58.891Z,47.38
2022-07-27T09:01:03.062Z,46.78
2022-07-27T09:06:05.968Z,43.88
2022-07-27T09:11:16.126Z,43.73
2022-07-27T09:17:03.140Z,45.94
2022-07-27T09:21:54.030Z,45.22
2022-07-27T09:27:04.136Z,45.72
2022-07-27T09:32:16.844Z,47.16
2022-07-27T09:37:24.950Z,42.71
2022-07-27T09:43:05.477Z,40.81
2022-07-27T09:47:53.190Z,41.97
2022-07-27T09:52:56.165Z,41.79
2022-07-27T09:57:59.990Z,39.46
2022-07-27T10:03:04.186Z,39.20
2022-07-27T10:08:07.388Z,38.29
2022-07-27T10:13:10.803Z,36.58
2022-07-27T10:18:20.958Z,38.27
2022-07-27T10:23:30.346Z,36.83
2022-07-27T10:28:33.178Z,38.04
2022-07-27T10:33:48.758Z,38.18
2022-07-27T10:38:56.422Z,39.30
2022-07-27T10:44:29.660Z,39.84
2022-07-27T10:49:40.579Z,35.65
2022-07-27T10:54:49.577Z,33.92
2022-07-27T11:00:14.736Z,37.80
2022-07-27T11:05:53.717Z,36.08
2022-07-27T11:10:44.674Z,35.57
2022-07-27T11:15:56.039Z,35.75
2022-07-27T11:21:26.885Z,36.07
2022-07-27T11:26:31.406Z,36.15
2022-07-27T11:31:54.892Z,33.36
2022-07-27T11:37:02.088Z,34.99
2022-07-27T11:42:09.055Z,33.48
2022-07-27T11:47:17.734Z,34.80
2022-07-27T11:52:23.666Z,37.22
2022-07-27T11:57:32.572Z,36.94
2022-07-27T12:02:35.486Z,35.76
2022-07-27T12:07:41.022Z,34.75
2022-07-27T12:12:50.297Z,34.62
2022-07-27T12:17:56.969Z,35.62
2022-07-27T12:23:06.526Z,36.81
2022-07-27T12:28:12.556Z,37.20
2022-07-27T12:33:29.048Z,35.84
2022-07-27T12:38:40.460Z,36.16
2022-07-27T12:43:43.301Z,38.72
2022-07-27T12:48:46.152Z,38.49
2022-07-27T12:53:50.782Z,39.23
2022-07-27T12:59:00.788Z,36.67
2022-07-27T13:04:03.631Z,37.45
2022-07-27T13:09:07.799Z,34.42
2022-07-27T13:14:10.664Z,32.53
2022-07-27T13:19:15.398Z,31.23
2022-07-27T13:24:20.348Z,30.36
2022-07-27T13:29:23.142Z,32.05
2022-07-27T13:34:26.076Z,28.01
2022-07-27T13:39:30.862Z,28.46
2022-07-27T13:45:00.903Z,31.88
2022-07-27T13:50:00.029Z,28.89
2022-07-27T13:55:04.447Z,30.96
2022-07-27T14:00:12.272Z,29.61
2022-07-27T14:05:15.812Z,28.93
2022-07-27T14:10:41.735Z,31.48
2022-07-27T14:15:53.469Z,33.27
2022-07-27T14:21:00.146Z,34.48
2022-07-27T14:26:06.326Z,36.34
2022-07-27T14:31:10.736Z,36.13
2022-07-27T14:36:13.586Z,36.93
2022-07-27T14:41:17.851Z,37.25
2022-07-27T14:46:20.706Z,37.53
2022-07-27T14:51:23.803Z,38.40
2022-07-27T14:56:27.974Z,39.04
2022-07-27T15:01:31.015Z,39.24
2022-07-27T15:06:38.892Z,39.18
2022-07-27T15:11:43.765Z,38.84
2022-07-27T15:16:48.397Z,38.69
2022-07-27T15:21:51.395Z,39.73
2022-07-27T15:26:55.713Z,39.27
2022-07-27T15:31:58.612Z,39.94
2022-07-27T15:37:01.493Z,40.02
2022-07-27T15:42:06.350Z,39.29
2022-07-27T15:47:09.479Z,38.93
2022-07-27T15:52:12.318Z,38.98
2022-07-27T15:57:16.515Z,38.08
2022-07-27T16:02:20.682Z,37.28
2022-07-27T16:07:27.740Z,38.09
2022-07-27T16:12:44.893Z,38.91
2022-07-27T16:17:47.733Z,38.62
2022-07-27T16:22:51.278Z,39.44
2022-07-27T16:27:55.458Z,39.26
2022-07-27T16:32:58.556Z,39.88
2022-07-27T16:38:01.416Z,40.69
2022-07-27T16:43:05.999Z,40.83
2022-07-27T16:48:08.887Z,41.56
2022-07-27T16:53:11.661Z,41.36
2022-07-27T16:58:15.823Z,41.83
2022-07-27T17:03:18.589Z,41.38
2022-07-27T17:08:21.634Z,41.84
2022-07-27T17:13:34.163Z,41.26
2022-07-27T17:18:40.570Z,41.11
2022-07-27T17:23:43.960Z,41.98
2022-07-27T17:28:48.360Z,41.55
2022-07-27T17:33:51.658Z,42.18
2022-07-27T17:38:54.572Z,42.63
2022-07-27T17:43:58.730Z,42.19
2022-07-27T17:49:01.750Z,42.20
2022-07-27T17:54:04.798Z,42.18
2022-07-27T17:59:27.315Z,41.64
2022-07-27T18:04:34.468Z,41.81
2022-07-27T18:09:41.537Z,42.33
2022-07-27T18:14:59.573Z,42.37
2022-07-27T18:20:02.387Z,42.74
2022-07-27T18:25:06.111Z,43.00
2022-07-27T18:30:11.997Z,44.21
2022-07-27T18:35:14.835Z,43.94
2022-07-27T18:40:17.688Z,44.81
2022-07-27T18:45:21.807Z,45.20
2022-07-27T18:50:39.647Z,45.09
2022-07-27T18:55:42.824Z,45.46
2022-07-27T19:00:46.978Z,46.05
2022-07-27T19:05:50.875Z,46.85
2022-07-27T19:10:55.653Z,47.12
2022-07-27T19:16:00.903Z,47.44
2022-07-27T19:21:03.783Z,48.28
2022-07-27T19:26:06.942Z,47.93
2022-07-27T19:31:23.338Z,47.92
2022-07-27T19:36:26.650Z,48.34
2022-07-27T19:41:29.466Z,48.42
2022-07-27T19:46:33.698Z,49.26
2022-07-27T19:51:36.539Z,49.36
2022-07-27T19:56:39.423Z,49.47
2022-07-27T20:01:43.659Z,49.89
2022-07-27T20:06:46.485Z,50.04
2022-07-27T20:11:49.274Z,49.98
2022-07-27T20:16:53.539Z,50.23
2022-07-27T20:21:57.201Z,50.33
2022-07-27T20:27:00.048Z,50.58
2022-07-27T20:32:04.745Z,50.64
2022-07-27T20:37:07.568Z,51.29
2022-07-27T20:42:10.905Z,51.07
2022-07-27T20:47:15.253Z,51.23
2022-07-27T20:52:18.411Z,51.84
2022-07-27T20:57:21.356Z,52.20
2022-07-27T21:02:25.553Z,52.41
2022-07-27T21:07:28.534Z,52.78
2022-07-27T21:12:31.473Z,53.13
2022-07-27T21:17:35.614Z,53.21
2022-07-27T21:22:38.462Z,53.59
2022-07-27T21:27:41.280Z,53.68
2022-07-27T21:32:46.418Z,53.89
2022-07-27T21:37:49.282Z,53.93
2022-07-27T21:42:52.505Z,54.34
2022-07-27T21:47:56.726Z,54.61
2022-07-27T21:53:00.065Z,54.61
2022-07-27T21:58:02.936Z,54.48
2022-07-27T22:03:07.202Z,54.88
2022-07-27T22:08:10.171Z,55.52
2022-07-27T22:13:12.977Z,55.69
2022-07-27T22:18:17.225Z,56.04
2022-07-27T22:23:20.100Z,55.91
2022-07-27T22:28:23.679Z,56.69
2022-07-27T22:33:30.391Z,57.39
2022-07-27T22:38:33.197Z,57.60
2022-07-27T22:43:36.084Z,57.39
2022-07-27T22:48:40.271Z,57.26
2022-07-27T22:53:43.335Z,57.44
2022-07-27T22:58:46.160Z,57.89
2022-07-27T23:03:50.362Z,58.46
2022-07-27T23:08:53.178Z,58.55
2022-07-27T23:13:56.066Z,58.09
2022-07-27T23:19:00.199Z,58.45
2022-07-27T23:24:05.001Z,58.37
2022-07-27T23:29:07.937Z,58.42
2022-07-27T23:34:12.513Z,58.60
2022-07-27T23:39:15.601Z,58.55
2022-07-27T23:44:18.575Z,58.93
2022-07-27T23:49:22.804Z,59.33
2022-07-27T23:54:25.577Z,59.24
2022-07-27T23:59:28.424Z,59.12
